sensor_id;sensor_type;location;lat;lon;timestamp;P1;durP1;ratioP1;P2;durP2;ratioP2
14698;SDS011;7439;50.804;4.602;2023-02-28T00:00:36;12.30;;;9.77;;
14698;SDS011;7439;50.804;4.602;2023-02-28T00:03:04;13.27;;;9.70;;
14698;SDS011;7439;50.804;4.602;2023-02-28T00:05:31;14.00;;;10.23;;
14698;SDS011;7439;50.804;4.602;2023-02-28T00:07:59;11.87;;;9.80;;
14698;SDS011;7439;50.804;4.602;2023-02-28T00:10:27;9.90;;;8.50;;
14698;SDS011;7439;50.804;4.602;2023-02-28T00:12:59;10.27;;;9.20;;
14698;SDS011;7439;50.804;4.602;2023-02-28T00:15:26;9.87;;;8.83;;
14698;SDS011;7439;50.804;4.602;2023-02-28T00:17:54;10.47;;;9.43;;
14698;SDS011;7439;50.804;4.602;2023-02-28T00:20:22;11.03;;;8.67;;
14698;SDS011;7439;50.804;4.602;2023-02-28T00:22:50;11.10;;;9.73;;
14698;SDS011;7439;50.804;4.602;2023-02-28T00:25:18;12.10;;;9.23;;
14698;SDS011;7439;50.804;4.602;2023-02-28T00:27:46;10.30;;;9.20;;
14698;SDS011;7439;50.804;4.602;2023-02-28T00:30:16;13.13;;;9.43;;
14698;SDS011;7439;50.804;4.602;2023-02-28T00:32:44;10.90;;;8.97;;
14698;SDS011;7439;50.804;4.602;2023-02-28T00:35:11;11.73;;;9.27;;
14698;SDS011;7439;50.804;4.602;2023-02-28T00:37:39;11.73;;;9.10;;
14698;SDS011;7439;50.804;4.602;2023-02-28T00:40:07;11.43;;;9.67;;
14698;SDS011;7439;50.804;4.602;2023-02-28T00:42:36;12.27;;;9.53;;
14698;SDS011;7439;50.804;4.602;2023-02-28T00:45:04;11.07;;;8.50;;
14698;SDS011;7439;50.804;4.602;2023-02-28T00:47:34;10.67;;;9.33;;
14698;SDS011;7439;50.804;4.602;2023-02-28T00:50:02;13.17;;;8.90;;
14698;SDS011;7439;50.804;4.602;2023-02-28T00:52:29;11.33;;;8.80;;
14698;SDS011;7439;50.804;4.602;2023-02-28T00:54:57;9.80;;;8.17;;
14698;SDS011;7439;50.804;4.602;2023-02-28T00:57:24;15.17;;;9.73;;
14698;SDS011;7439;50.804;4.602;2023-02-28T00:59:52;10.27;;;8.83;;
14698;SDS011;7439;50.804;4.602;2023-02-28T01:02:20;9.67;;;8.73;;
14698;SDS011;7439;50.804;4.602;2023-02-28T01:04:49;10.57;;;9.30;;
14698;SDS011;7439;50.804;4.602;2023-02-28T01:07:16;10.40;;;8.97;;
14698;SDS011;7439;50.804;4.602;2023-02-28T01:09:44;12.57;;;9.70;;
14698;SDS011;7439;50.804;4.602;2023-02-28T01:12:11;12.90;;;9.20;;
14698;SDS011;7439;50.804;4.602;2023-02-28T01:14:39;14.23;;;9.40;;
14698;SDS011;7439;50.804;4.602;2023-02-28T01:17:06;10.20;;;9.20;;
14698;SDS011;7439;50.804;4.602;2023-02-28T01:19:33;10.13;;;9.10;;
14698;SDS011;7439;50.804;4.602;2023-02-28T01:22:03;10.50;;;8.83;;
14698;SDS011;7439;50.804;4.602;2023-02-28T01:24:30;11.97;;;9.97;;
14698;SDS011;7439;50.804;4.602;2023-02-28T01:26:58;12.53;;;9.27;;
14698;SDS011;7439;50.804;4.602;2023-02-28T01:29:25;9.93;;;8.87;;
14698;SDS011;7439;50.804;4.602;2023-02-28T01:31:53;9.43;;;8.00;;
14698;SDS011;7439;50.804;4.602;2023-02-28T01:34:20;10.40;;;9.10;;
14698;SDS011;7439;50.804;4.602;2023-02-28T01:36:48;10.70;;;8.97;;
14698;SDS011;7439;50.804;4.602;2023-02-28T01:39:16;12.07;;;8.63;;
14698;SDS011;7439;50.804;4.602;2023-02-28T01:41:44;17.57;;;9.23;;
14698;SDS011;7439;50.804;4.602;2023-02-28T01:46:57;12.00;;;9.03;;
14698;SDS011;7439;50.804;4.602;2023-02-28T01:49:24;12.17;;;8.67;;
14698;SDS011;7439;50.804;4.602;2023-02-28T01:51:53;12.83;;;8.80;;
14698;SDS011;7439;50.804;4.602;2023-02-28T01:54:24;16.20;;;8.93;;
14698;SDS011;7439;50.804;4.602;2023-02-28T01:56:53;12.57;;;8.60;;
14698;SDS011;7439;50.804;4.602;2023-02-28T01:59:22;13.43;;;8.80;;
14698;SDS011;7439;50.804;4.602;2023-02-28T02:01:50;10.27;;;9.20;;
14698;SDS011;7439;50.804;4.602;2023-02-28T02:04:17;10.50;;;9.17;;
14698;SDS011;7439;50.804;4.602;2023-02-28T02:06:45;12.13;;;9.80;;
14698;SDS011;7439;50.804;4.602;2023-02-28T02:09:14;11.07;;;8.53;;
14698;SDS011;7439;50.804;4.602;2023-02-28T02:11:43;12.20;;;9.37;;
14698;SDS011;7439;50.804;4.602;2023-02-28T02:14:22;16.37;;;10.20;;
14698;SDS011;7439;50.804;4.602;2023-02-28T02:16:57;10.80;;;9.20;;
14698;SDS011;7439;50.804;4.602;2023-02-28T02:22:32;9.77;;;8.77;;
14698;SDS011;7439;50.804;4.602;2023-02-28T02:25:11;10.57;;;9.20;;
14698;SDS011;7439;50.804;4.602;2023-02-28T02:28:07;12.93;;;8.73;;
14698;SDS011;7439;50.804;4.602;2023-02-28T02:30:46;10.47;;;9.30;;
14698;SDS011;7439;50.804;4.602;2023-02-28T02:33:24;10.37;;;9.30;;
14698;SDS011;7439;50.804;4.602;2023-02-28T02:35:55;12.03;;;9.67;;
14698;SDS011;7439;50.804;4.602;2023-02-28T02:38:27;12.97;;;9.87;;
14698;SDS011;7439;50.804;4.602;2023-02-28T02:40:59;13.00;;;9.53;;
14698;SDS011;7439;50.804;4.602;2023-02-28T02:43:30;11.83;;;10.67;;
14698;SDS011;7439;50.804;4.602;2023-02-28T02:46:01;14.23;;;10.60;;
14698;SDS011;7439;50.804;4.602;2023-02-28T02:48:31;15.67;;;9.73;;
14698;SDS011;7439;50.804;4.602;2023-02-28T02:51:01;12.80;;;9.77;;
14698;SDS011;7439;50.804;4.602;2023-02-28T02:53:32;10.03;;;9.03;;
14698;SDS011;7439;50.804;4.602;2023-02-28T02:56:00;13.50;;;9.20;;
14698;SDS011;7439;50.804;4.602;2023-02-28T02:58:29;11.13;;;9.97;;
14698;SDS011;7439;50.804;4.602;2023-02-28T03:00:58;12.50;;;10.13;;
14698;SDS011;7439;50.804;4.602;2023-02-28T03:03:27;11.07;;;9.30;;
14698;SDS011;7439;50.804;4.602;2023-02-28T03:05:57;10.70;;;9.53;;
14698;SDS011;7439;50.804;4.602;2023-02-28T03:08:28;13.90;;;10.60;;
14698;SDS011;7439;50.804;4.602;2023-02-28T03:10:56;11.80;;;8.90;;
14698;SDS011;7439;50.804;4.602;2023-02-28T03:13:30;11.03;;;9.57;;
14698;SDS011;7439;50.804;4.602;2023-02-28T03:16:05;11.37;;;9.73;;
14698;SDS011;7439;50.804;4.602;2023-02-28T03:18:40;14.00;;;10.20;;
14698;SDS011;7439;50.804;4.602;2023-02-28T03:21:11;12.10;;;10.20;;
14698;SDS011;7439;50.804;4.602;2023-02-28T03:23:45;10.93;;;9.73;;
14698;SDS011;7439;50.804;4.602;2023-02-28T03:26:17;14.77;;;10.50;;
14698;SDS011;7439;50.804;4.602;2023-02-28T03:28:49;11.70;;;9.53;;
14698;SDS011;7439;50.804;4.602;2023-02-28T03:31:18;11.87;;;9.47;;
14698;SDS011;7439;50.804;4.602;2023-02-28T03:33:48;12.20;;;9.93;;
14698;SDS011;7439;50.804;4.602;2023-02-28T03:36:20;11.73;;;10.17;;
14698;SDS011;7439;50.804;4.602;2023-02-28T03:38:51;10.37;;;9.27;;
14698;SDS011;7439;50.804;4.602;2023-02-28T03:41:21;12.57;;;9.73;;
14698;SDS011;7439;50.804;4.602;2023-02-28T03:43:50;13.90;;;10.27;;
14698;SDS011;7439;50.804;4.602;2023-02-28T03:46:21;14.50;;;10.00;;
14698;SDS011;7439;50.804;4.602;2023-02-28T03:48:51;14.70;;;10.73;;
14698;SDS011;7439;50.804;4.602;2023-02-28T03:51:19;12.30;;;10.57;;
14698;SDS011;7439;50.804;4.602;2023-02-28T03:53:52;14.07;;;10.33;;
14698;SDS011;7439;50.804;4.602;2023-02-28T03:56:21;11.47;;;10.27;;
14698;SDS011;7439;50.804;4.602;2023-02-28T03:58:51;19.47;;;10.83;;
14698;SDS011;7439;50.804;4.602;2023-02-28T04:01:21;12.80;;;10.77;;
14698;SDS011;7439;50.804;4.602;2023-02-28T04:03:50;13.73;;;10.47;;
14698;SDS011;7439;50.804;4.602;2023-02-28T04:06:19;12.27;;;10.93;;
14698;SDS011;7439;50.804;4.602;2023-02-28T04:08:47;13.97;;;10.87;;
14698;SDS011;7439;50.804;4.602;2023-02-28T04:11:23;16.07;;;10.27;;
14698;SDS011;7439;50.804;4.602;2023-02-28T04:13:51;15.33;;;10.57;;
14698;SDS011;7439;50.804;4.602;2023-02-28T04:16:18;12.57;;;10.63;;
14698;SDS011;7439;50.804;4.602;2023-02-28T04:18:45;13.63;;;11.27;;
14698;SDS011;7439;50.804;4.602;2023-02-28T04:21:13;13.43;;;10.67;;
14698;SDS011;7439;50.804;4.602;2023-02-28T04:23:40;13.10;;;11.53;;
14698;SDS011;7439;50.804;4.602;2023-02-28T04:26:08;17.63;;;11.70;;
14698;SDS011;7439;50.804;4.602;2023-02-28T04:28:38;13.37;;;11.37;;
14698;SDS011;7439;50.804;4.602;2023-02-28T04:31:05;12.23;;;10.90;;
14698;SDS011;7439;50.804;4.602;2023-02-28T04:33:33;14.87;;;11.27;;
14698;SDS011;7439;50.804;4.602;2023-02-28T04:36:01;17.77;;;12.10;;
14698;SDS011;7439;50.804;4.602;2023-02-28T04:38:29;16.50;;;11.70;;
14698;SDS011;7439;50.804;4.602;2023-02-28T04:40:57;13.80;;;11.53;;
14698;SDS011;7439;50.804;4.602;2023-02-28T04:43:25;15.57;;;12.17;;
14698;SDS011;7439;50.804;4.602;2023-02-28T04:45:54;14.87;;;12.23;;
14698;SDS011;7439;50.804;4.602;2023-02-28T04:48:23;16.37;;;11.60;;
14698;SDS011;7439;50.804;4.602;2023-02-28T04:50:50;13.13;;;10.57;;
14698;SDS011;7439;50.804;4.602;2023-02-28T04:53:18;20.13;;;12.47;;
14698;SDS011;7439;50.804;4.602;2023-02-28T04:55:45;15.73;;;12.33;;
14698;SDS011;7439;50.804;4.602;2023-02-28T04:58:12;18.90;;;12.50;;
14698;SDS011;7439;50.804;4.602;2023-02-28T05:00:40;16.60;;;11.40;;
14698;SDS011;7439;50.804;4.602;2023-02-28T05:03:09;16.93;;;12.57;;
14698;SDS011;7439;50.804;4.602;2023-02-28T05:05:36;17.23;;;12.03;;
14698;SDS011;7439;50.804;4.602;2023-02-28T05:08:04;20.20;;;14.50;;
14698;SDS011;7439;50.804;4.602;2023-02-28T05:10:31;16.60;;;13.23;;
14698;SDS011;7439;50.804;4.602;2023-02-28T05:12:59;16.47;;;13.43;;
14698;SDS011;7439;50.804;4.602;2023-02-28T05:15:26;15.30;;;13.03;;
14698;SDS011;7439;50.804;4.602;2023-02-28T05:17:54;19.73;;;13.67;;
14698;SDS011;7439;50.804;4.602;2023-02-28T05:20:23;19.27;;;13.23;;
14698;SDS011;7439;50.804;4.602;2023-02-28T05:22:50;21.53;;;13.93;;
14698;SDS011;7439;50.804;4.602;2023-02-28T05:25:18;15.43;;;13.40;;
14698;SDS011;7439;50.804;4.602;2023-02-28T05:27:46;18.73;;;13.17;;
14698;SDS011;7439;50.804;4.602;2023-02-28T05:30:14;18.63;;;13.37;;
14698;SDS011;7439;50.804;4.602;2023-02-28T05:32:41;16.93;;;12.83;;
14698;SDS011;7439;50.804;4.602;2023-02-28T05:35:09;20.03;;;14.20;;
14698;SDS011;7439;50.804;4.602;2023-02-28T05:37:38;18.23;;;13.87;;
14698;SDS011;7439;50.804;4.602;2023-02-28T05:40:06;21.37;;;14.37;;
14698;SDS011;7439;50.804;4.602;2023-02-28T05:42:35;22.23;;;15.37;;
14698;SDS011;7439;50.804;4.602;2023-02-28T05:45:02;15.93;;;13.37;;
14698;SDS011;7439;50.804;4.602;2023-02-28T05:47:30;17.80;;;12.10;;
14698;SDS011;7439;50.804;4.602;2023-02-28T05:49:57;17.67;;;13.60;;
14698;SDS011;7439;50.804;4.602;2023-02-28T05:52:25;18.40;;;14.33;;
14698;SDS011;7439;50.804;4.602;2023-02-28T05:54:54;20.10;;;14.80;;
14698;SDS011;7439;50.804;4.602;2023-02-28T05:57:21;20.27;;;14.43;;
14698;SDS011;7439;50.804;4.602;2023-02-28T05:59:49;19.63;;;14.23;;
14698;SDS011;7439;50.804;4.602;2023-02-28T06:02:17;19.23;;;14.87;;
14698;SDS011;7439;50.804;4.602;2023-02-28T06:04:44;25.73;;;16.00;;
14698;SDS011;7439;50.804;4.602;2023-02-28T06:07:11;20.63;;;14.27;;
14698;SDS011;7439;50.804;4.602;2023-02-28T06:09:40;18.50;;;13.70;;
14698;SDS011;7439;50.804;4.602;2023-02-28T06:12:09;20.17;;;13.67;;
14698;SDS011;7439;50.804;4.602;2023-02-28T06:14:37;19.50;;;15.70;;
14698;SDS011;7439;50.804;4.602;2023-02-28T06:17:04;19.77;;;15.33;;
14698;SDS011;7439;50.804;4.602;2023-02-28T06:19:32;19.40;;;15.03;;
14698;SDS011;7439;50.804;4.602;2023-02-28T06:21:59;24.13;;;16.00;;
14698;SDS011;7439;50.804;4.602;2023-02-28T06:24:32;19.10;;;14.50;;
14698;SDS011;7439;50.804;4.602;2023-02-28T06:27:00;19.37;;;15.70;;
14698;SDS011;7439;50.804;4.602;2023-02-28T06:29:31;21.07;;;15.43;;
14698;SDS011;7439;50.804;4.602;2023-02-28T06:31:59;25.13;;;17.10;;
14698;SDS011;7439;50.804;4.602;2023-02-28T06:34:26;21.57;;;15.67;;
14698;SDS011;7439;50.804;4.602;2023-02-28T06:36:54;24.57;;;15.23;;
14698;SDS011;7439;50.804;4.602;2023-02-28T06:39:21;21.97;;;15.30;;
14698;SDS011;7439;50.804;4.602;2023-02-28T06:41:49;24.10;;;15.30;;
14698;SDS011;7439;50.804;4.602;2023-02-28T06:44:17;22.33;;;14.77;;
14698;SDS011;7439;50.804;4.602;2023-02-28T06:46:46;20.50;;;16.67;;
14698;SDS011;7439;50.804;4.602;2023-02-28T06:49:14;22.63;;;14.97;;
14698;SDS011;7439;50.804;4.602;2023-02-28T06:51:42;18.27;;;15.37;;
14698;SDS011;7439;50.804;4.602;2023-02-28T06:54:11;21.57;;;15.40;;
14698;SDS011;7439;50.804;4.602;2023-02-28T06:56:39;19.10;;;15.10;;
14698;SDS011;7439;50.804;4.602;2023-02-28T06:59:06;22.37;;;15.57;;
14698;SDS011;7439;50.804;4.602;2023-02-28T07:01:33;24.27;;;15.53;;
14698;SDS011;7439;50.804;4.602;2023-02-28T07:04:02;23.80;;;16.87;;
14698;SDS011;7439;50.804;4.602;2023-02-28T07:06:30;20.47;;;16.27;;
14698;SDS011;7439;50.804;4.602;2023-02-28T07:08:58;19.50;;;16.30;;
14698;SDS011;7439;50.804;4.602;2023-02-28T07:11:26;22.27;;;17.73;;
14698;SDS011;7439;50.804;4.602;2023-02-28T07:13:54;20.07;;;16.97;;
14698;SDS011;7439;50.804;4.602;2023-02-28T07:16:22;23.03;;;16.60;;
14698;SDS011;7439;50.804;4.602;2023-02-28T07:18:51;28.53;;;18.57;;
14698;SDS011;7439;50.804;4.602;2023-02-28T07:21:20;31.60;;;18.67;;
14698;SDS011;7439;50.804;4.602;2023-02-28T07:23:48;26.13;;;18.33;;
14698;SDS011;7439;50.804;4.602;2023-02-28T07:26:17;30.20;;;18.73;;
14698;SDS011;7439;50.804;4.602;2023-02-28T07:28:48;31.10;;;19.70;;
14698;SDS011;7439;50.804;4.602;2023-02-28T07:31:15;35.33;;;18.83;;
14698;SDS011;7439;50.804;4.602;2023-02-28T07:33:43;23.97;;;19.60;;
14698;SDS011;7439;50.804;4.602;2023-02-28T07:36:11;24.00;;;18.43;;
14698;SDS011;7439;50.804;4.602;2023-02-28T07:38:41;23.37;;;17.00;;
14698;SDS011;7439;50.804;4.602;2023-02-28T07:41:09;23.57;;;17.97;;
14698;SDS011;7439;50.804;4.602;2023-02-28T07:43:37;24.80;;;17.30;;
14698;SDS011;7439;50.804;4.602;2023-02-28T07:46:05;21.53;;;17.47;;
14698;SDS011;7439;50.804;4.602;2023-02-28T07:48:33;19.90;;;15.93;;
14698;SDS011;7439;50.804;4.602;2023-02-28T07:51:00;19.17;;;16.23;;
14698;SDS011;7439;50.804;4.602;2023-02-28T07:53:28;21.47;;;15.53;;
14698;SDS011;7439;50.804;4.602;2023-02-28T07:55:57;17.90;;;14.97;;
14698;SDS011;7439;50.804;4.602;2023-02-28T07:58:26;19.30;;;15.60;;
14698;SDS011;7439;50.804;4.602;2023-02-28T08:00:53;15.43;;;13.87;;
14698;SDS011;7439;50.804;4.602;2023-02-28T08:03:21;15.90;;;12.83;;
14698;SDS011;7439;50.804;4.602;2023-02-28T08:05:49;15.60;;;13.57;;
14698;SDS011;7439;50.804;4.602;2023-02-28T08:08:17;14.93;;;11.80;;
14698;SDS011;7439;50.804;4.602;2023-02-28T08:10:44;13.53;;;10.73;;
14698;SDS011;7439;50.804;4.602;2023-02-28T08:13:13;12.10;;;10.13;;
14698;SDS011;7439;50.804;4.602;2023-02-28T08:15:41;10.43;;;9.37;;
14698;SDS011;7439;50.804;4.602;2023-02-28T08:18:10;14.00;;;10.40;;
14698;SDS011;7439;50.804;4.602;2023-02-28T08:20:37;9.47;;;8.57;;
14698;SDS011;7439;50.804;4.602;2023-02-28T08:23:05;10.03;;;8.30;;
14698;SDS011;7439;50.804;4.602;2023-02-28T08:25:32;10.93;;;8.67;;
14698;SDS011;7439;50.804;4.602;2023-02-28T08:28:00;10.17;;;7.30;;
14698;SDS011;7439;50.804;4.602;2023-02-28T08:30:28;9.33;;;7.73;;
14698;SDS011;7439;50.804;4.602;2023-02-28T08:32:56;14.43;;;7.57;;
14698;SDS011;7439;50.804;4.602;2023-02-28T08:35:23;10.33;;;7.93;;
14698;SDS011;7439;50.804;4.602;2023-02-28T08:37:51;11.27;;;7.57;;
14698;SDS011;7439;50.804;4.602;2023-02-28T08:40:18;8.13;;;7.33;;
14698;SDS011;7439;50.804;4.602;2023-02-28T08:42:46;9.50;;;6.80;;
14698;SDS011;7439;50.804;4.602;2023-02-28T08:45:14;6.67;;;5.90;;
14698;SDS011;7439;50.804;4.602;2023-02-28T08:47:43;7.20;;;5.83;;
14698;SDS011;7439;50.804;4.602;2023-02-28T08:50:13;8.00;;;6.60;;
14698;SDS011;7439;50.804;4.602;2023-02-28T08:52:43;6.93;;;6.23;;
14698;SDS011;7439;50.804;4.602;2023-02-28T08:55:13;8.13;;;5.70;;
14698;SDS011;7439;50.804;4.602;2023-02-28T08:57:41;6.83;;;5.73;;
14698;SDS011;7439;50.804;4.602;2023-02-28T09:00:09;6.97;;;5.77;;
14698;SDS011;7439;50.804;4.602;2023-02-28T09:02:38;6.50;;;5.80;;
14698;SDS011;7439;50.804;4.602;2023-02-28T09:05:09;7.40;;;5.47;;
14698;SDS011;7439;50.804;4.602;2023-02-28T09:07:37;6.97;;;5.60;;
14698;SDS011;7439;50.804;4.602;2023-02-28T09:10:04;9.83;;;5.77;;
14698;SDS011;7439;50.804;4.602;2023-02-28T09:12:32;7.10;;;5.70;;
14698;SDS011;7439;50.804;4.602;2023-02-28T09:15:00;7.60;;;5.30;;
14698;SDS011;7439;50.804;4.602;2023-02-28T09:17:27;8.33;;;4.73;;
14698;SDS011;7439;50.804;4.602;2023-02-28T09:19:54;6.67;;;4.60;;
14698;SDS011;7439;50.804;4.602;2023-02-28T09:22:23;5.23;;;4.73;;
14698;SDS011;7439;50.804;4.602;2023-02-28T09:24:50;5.80;;;4.60;;
14698;SDS011;7439;50.804;4.602;2023-02-28T09:27:18;5.60;;;5.00;;
14698;SDS011;7439;50.804;4.602;2023-02-28T09:29:45;5.57;;;4.20;;
14698;SDS011;7439;50.804;4.602;2023-02-28T09:32:13;5.80;;;4.50;;
14698;SDS011;7439;50.804;4.602;2023-02-28T09:34:43;4.33;;;3.67;;
14698;SDS011;7439;50.804;4.602;2023-02-28T09:37:11;5.40;;;3.33;;
14698;SDS011;7439;50.804;4.602;2023-02-28T09:39:40;5.33;;;3.77;;
14698;SDS011;7439;50.804;4.602;2023-02-28T09:42:11;7.10;;;4.00;;
14698;SDS011;7439;50.804;4.602;2023-02-28T09:44:47;4.67;;;3.80;;
14698;SDS011;7439;50.804;4.602;2023-02-28T09:47:16;4.00;;;3.60;;
14698;SDS011;7439;50.804;4.602;2023-02-28T09:49:46;4.40;;;3.73;;
14698;SDS011;7439;50.804;4.602;2023-02-28T09:52:18;3.47;;;3.07;;
14698;SDS011;7439;50.804;4.602;2023-02-28T09:54:47;4.47;;;3.60;;
14698;SDS011;7439;50.804;4.602;2023-02-28T09:57:19;3.73;;;3.43;;
14698;SDS011;7439;50.804;4.602;2023-02-28T09:59:54;4.57;;;3.53;;
14698;SDS011;7439;50.804;4.602;2023-02-28T10:02:38;5.03;;;3.70;;
14698;SDS011;7439;50.804;4.602;2023-02-28T10:05:08;3.63;;;3.30;;
14698;SDS011;7439;50.804;4.602;2023-02-28T10:07:42;3.43;;;3.13;;
14698;SDS011;7439;50.804;4.602;2023-02-28T10:10:17;3.40;;;3.07;;
14698;SDS011;7439;50.804;4.602;2023-02-28T10:12:45;4.33;;;2.87;;
14698;SDS011;7439;50.804;4.602;2023-02-28T10:15:14;3.30;;;3.00;;
14698;SDS011;7439;50.804;4.602;2023-02-28T10:17:43;2.93;;;2.63;;
14698;SDS011;7439;50.804;4.602;2023-02-28T10:20:12;3.30;;;2.90;;
14698;SDS011;7439;50.804;4.602;2023-02-28T10:22:51;4.23;;;3.00;;
14698;SDS011;7439;50.804;4.602;2023-02-28T10:25:21;3.77;;;3.37;;
14698;SDS011;7439;50.804;4.602;2023-02-28T10:27:49;4.60;;;3.07;;
14698;SDS011;7439;50.804;4.602;2023-02-28T10:30:17;3.70;;;3.30;;
14698;SDS011;7439;50.804;4.602;2023-02-28T10:32:46;3.63;;;3.00;;
14698;SDS011;7439;50.804;4.602;2023-02-28T10:35:15;3.30;;;3.00;;
14698;SDS011;7439;50.804;4.602;2023-02-28T10:37:44;4.73;;;3.13;;
14698;SDS011;7439;50.804;4.602;2023-02-28T10:40:27;3.20;;;2.90;;
14698;SDS011;7439;50.804;4.602;2023-02-28T10:42:55;4.13;;;2.77;;
14698;SDS011;7439;50.804;4.602;2023-02-28T10:45:22;3.67;;;3.30;;
14698;SDS011;7439;50.804;4.602;2023-02-28T10:47:51;4.40;;;3.33;;
14698;SDS011;7439;50.804;4.602;2023-02-28T10:50:31;3.93;;;3.10;;
14698;SDS011;7439;50.804;4.602;2023-02-28T10:53:07;3.27;;;2.97;;
14698;SDS011;7439;50.804;4.602;2023-02-28T10:55:37;3.33;;;2.90;;
14698;SDS011;7439;50.804;4.602;2023-02-28T10:58:10;3.80;;;3.23;;
14698;SDS011;7439;50.804;4.602;2023-02-28T11:00:47;2.73;;;2.53;;
14698;SDS011;7439;50.804;4.602;2023-02-28T11:03:23;4.00;;;3.17;;
14698;SDS011;7439;50.804;4.602;2023-02-28T11:05:51;3.77;;;3.40;;
14698;SDS011;7439;50.804;4.602;2023-02-28T11:08:18;4.70;;;3.40;;
14698;SDS011;7439;50.804;4.602;2023-02-28T11:10:48;3.63;;;3.30;;
14698;SDS011;7439;50.804;4.602;2023-02-28T11:13:16;3.50;;;3.20;;
14698;SDS011;7439;50.804;4.602;2023-02-28T11:15:49;3.67;;;3.20;;
14698;SDS011;7439;50.804;4.602;2023-02-28T11:18:24;3.40;;;3.10;;
14698;SDS011;7439;50.804;4.602;2023-02-28T11:20:54;4.07;;;3.23;;
14698;SDS011;7439;50.804;4.602;2023-02-28T11:23:22;4.03;;;3.23;;
14698;SDS011;7439;50.804;4.602;2023-02-28T11:25:52;3.50;;;3.20;;
14698;SDS011;7439;50.804;4.602;2023-02-28T11:28:25;3.20;;;2.90;;
14698;SDS011;7439;50.804;4.602;2023-02-28T11:31:00;2.93;;;2.63;;
14698;SDS011;7439;50.804;4.602;2023-02-28T11:33:28;3.10;;;2.80;;
14698;SDS011;7439;50.804;4.602;2023-02-28T11:35:57;3.13;;;2.83;;
14698;SDS011;7439;50.804;4.602;2023-02-28T11:38:26;3.27;;;2.97;;
14698;SDS011;7439;50.804;4.602;2023-02-28T11:41:05;2.60;;;2.40;;
14698;SDS011;7439;50.804;4.602;2023-02-28T11:43:40;3.63;;;2.80;;
14698;SDS011;7439;50.804;4.602;2023-02-28T11:46:12;5.87;;;2.87;;
14698;SDS011;7439;50.804;4.602;2023-02-28T11:48:45;3.73;;;2.70;;
14698;SDS011;7439;50.804;4.602;2023-02-28T11:51:15;3.43;;;2.70;;
14698;SDS011;7439;50.804;4.602;2023-02-28T11:53:55;2.73;;;2.53;;
14698;SDS011;7439;50.804;4.602;2023-02-28T11:56:29;3.80;;;2.80;;
14698;SDS011;7439;50.804;4.602;2023-02-28T11:59:03;3.07;;;2.77;;
14698;SDS011;7439;50.804;4.602;2023-02-28T12:01:38;3.10;;;2.80;;
14698;SDS011;7439;50.804;4.602;2023-02-28T12:04:13;2.67;;;2.47;;
14698;SDS011;7439;50.804;4.602;2023-02-28T12:06:45;3.30;;;2.90;;
14698;SDS011;7439;50.804;4.602;2023-02-28T12:09:17;3.20;;;2.90;;
14698;SDS011;7439;50.804;4.602;2023-02-28T12:11:50;3.37;;;3.07;;
14698;SDS011;7439;50.804;4.602;2023-02-28T12:14:28;3.13;;;2.83;;
14698;SDS011;7439;50.804;4.602;2023-02-28T12:17:00;3.50;;;2.70;;
14698;SDS011;7439;50.804;4.602;2023-02-28T12:19:33;3.30;;;3.00;;
14698;SDS011;7439;50.804;4.602;2023-02-28T12:22:15;3.77;;;2.83;;
14698;SDS011;7439;50.804;4.602;2023-02-28T12:24:55;4.13;;;2.63;;
14698;SDS011;7439;50.804;4.602;2023-02-28T12:27:26;3.30;;;3.00;;
14698;SDS011;7439;50.804;4.602;2023-02-28T12:29:56;3.50;;;3.20;;
14698;SDS011;7439;50.804;4.602;2023-02-28T12:32:26;3.33;;;3.03;;
14698;SDS011;7439;50.804;4.602;2023-02-28T12:34:55;3.17;;;2.97;;
14698;SDS011;7439;50.804;4.602;2023-02-28T12:37:26;2.93;;;2.60;;
14698;SDS011;7439;50.804;4.602;2023-02-28T12:39:59;3.10;;;2.80;;
14698;SDS011;7439;50.804;4.602;2023-02-28T12:42:32;4.27;;;2.93;;
14698;SDS011;7439;50.804;4.602;2023-02-28T12:45:01;2.87;;;2.67;;
14698;SDS011;7439;50.804;4.602;2023-02-28T12:47:29;2.80;;;2.60;;
14698;SDS011;7439;50.804;4.602;2023-02-28T12:49:58;3.37;;;2.87;;
14698;SDS011;7439;50.804;4.602;2023-02-28T12:52:29;3.10;;;2.90;;
14698;SDS011;7439;50.804;4.602;2023-02-28T12:54:59;3.00;;;2.70;;
14698;SDS011;7439;50.804;4.602;2023-02-28T12:57:32;4.33;;;2.90;;
14698;SDS011;7439;50.804;4.602;2023-02-28T13:00:04;3.50;;;3.03;;
14698;SDS011;7439;50.804;4.602;2023-02-28T13:02:51;3.67;;;2.60;;
14698;SDS011;7439;50.804;4.602;2023-02-28T13:05:25;2.70;;;2.50;;
14698;SDS011;7439;50.804;4.602;2023-02-28T13:10:41;3.03;;;2.73;;
14698;SDS011;7439;50.804;4.602;2023-02-28T13:13:13;2.53;;;2.33;;
14698;SDS011;7439;50.804;4.602;2023-02-28T13:15:43;3.47;;;2.60;;
14698;SDS011;7439;50.804;4.602;2023-02-28T13:18:27;4.27;;;2.80;;
14698;SDS011;7439;50.804;4.602;2023-02-28T13:20:55;3.23;;;2.70;;
14698;SDS011;7439;50.804;4.602;2023-02-28T13:23:37;5.97;;;2.70;;
14698;SDS011;7439;50.804;4.602;2023-02-28T13:26:05;2.90;;;2.70;;
14698;SDS011;7439;50.804;4.602;2023-02-28T13:34:17;3.23;;;2.93;;
14698;SDS011;7439;50.804;4.602;2023-02-28T13:36:44;4.20;;;2.80;;
14698;SDS011;7439;50.804;4.602;2023-02-28T13:42:08;3.40;;;3.10;;
14698;SDS011;7439;50.804;4.602;2023-02-28T13:47:36;3.30;;;3.00;;
14698;SDS011;7439;50.804;4.602;2023-02-28T13:52:48;3.40;;;2.97;;
14698;SDS011;7439;50.804;4.602;2023-02-28T13:55:24;2.93;;;2.73;;
14698;SDS011;7439;50.804;4.602;2023-02-28T13:57:57;3.07;;;2.77;;
14698;SDS011;7439;50.804;4.602;2023-02-28T14:00:31;3.10;;;2.80;;
14698;SDS011;7439;50.804;4.602;2023-02-28T14:03:14;4.50;;;2.90;;
14698;SDS011;7439;50.804;4.602;2023-02-28T14:05:46;3.23;;;2.93;;
14698;SDS011;7439;50.804;4.602;2023-02-28T14:08:17;8.33;;;3.13;;
14698;SDS011;7439;50.804;4.602;2023-02-28T14:10:46;4.10;;;2.43;;
14698;SDS011;7439;50.804;4.602;2023-02-28T14:15:57;3.33;;;2.70;;
14698;SDS011;7439;50.804;4.602;2023-02-28T14:18:26;4.27;;;2.80;;
14698;SDS011;7439;50.804;4.602;2023-02-28T14:20:55;3.07;;;2.87;;
14698;SDS011;7439;50.804;4.602;2023-02-28T14:23:41;3.13;;;2.80;;
14698;SDS011;7439;50.804;4.602;2023-02-28T14:26:14;4.90;;;3.13;;
14698;SDS011;7439;50.804;4.602;2023-02-28T14:28:53;3.50;;;3.20;;
14698;SDS011;7439;50.804;4.602;2023-02-28T14:31:24;3.27;;;2.97;;
14698;SDS011;7439;50.804;4.602;2023-02-28T14:34:01;3.50;;;3.20;;
14698;SDS011;7439;50.804;4.602;2023-02-28T14:36:31;5.40;;;3.47;;
14698;SDS011;7439;50.804;4.602;2023-02-28T14:39:01;5.07;;;3.47;;
14698;SDS011;7439;50.804;4.602;2023-02-28T14:41:33;3.70;;;3.27;;
14698;SDS011;7439;50.804;4.602;2023-02-28T14:44:03;4.33;;;3.57;;
14698;SDS011;7439;50.804;4.602;2023-02-28T14:46:34;3.77;;;3.37;;
14698;SDS011;7439;50.804;4.602;2023-02-28T14:49:03;3.87;;;3.57;;
14698;SDS011;7439;50.804;4.602;2023-02-28T14:51:31;7.37;;;3.83;;
14698;SDS011;7439;50.804;4.602;2023-02-28T14:53:59;8.03;;;3.77;;
14698;SDS011;7439;50.804;4.602;2023-02-28T14:56:30;5.00;;;3.23;;
14698;SDS011;7439;50.804;4.602;2023-02-28T14:58:59;6.27;;;3.20;;
14698;SDS011;7439;50.804;4.602;2023-02-28T15:01:27;3.33;;;3.03;;
14698;SDS011;7439;50.804;4.602;2023-02-28T15:03:59;3.60;;;3.30;;
14698;SDS011;7439;50.804;4.602;2023-02-28T15:06:28;6.23;;;3.53;;
14698;SDS011;7439;50.804;4.602;2023-02-28T15:09:08;4.87;;;3.63;;
14698;SDS011;7439;50.804;4.602;2023-02-28T15:11:38;5.23;;;4.00;;
14698;SDS011;7439;50.804;4.602;2023-02-28T15:14:06;4.80;;;4.10;;
14698;SDS011;7439;50.804;4.602;2023-02-28T15:16:34;5.50;;;3.80;;
14698;SDS011;7439;50.804;4.602;2023-02-28T15:19:05;5.00;;;3.40;;
14698;SDS011;7439;50.804;4.602;2023-02-28T15:21:35;4.07;;;3.60;;
14698;SDS011;7439;50.804;4.602;2023-02-28T15:24:03;3.90;;;3.60;;
14698;SDS011;7439;50.804;4.602;2023-02-28T15:26:32;3.63;;;3.30;;
14698;SDS011;7439;50.804;4.602;2023-02-28T15:29:04;4.50;;;3.43;;
14698;SDS011;7439;50.804;4.602;2023-02-28T15:31:32;4.20;;;3.80;;